Flight Track Log - Related Links

Times and Time Zones

All times are in EDT time to prevent confusion due to time zone crossing. See the UAL139 flight status page for this flight to view local times or setup timezone preferences in your user account.

Time Position Orientation Groundspeed Altitude Reporting Facility
EDT Latitude Longitude Course Direction KTS MPH feet Rate Location/Type
Wed 02:43:04 PM 39.8680 -104.6960 360° North 148 170 5,000  Level FlightAware ADS-B
Wed 02:43:18 PM 39.8806 -104.6960 360° North 200 230 5,100 1,600 Climbing FlightAware ADS-B
Wed 02:43:34 PM 39.8954 -104.6960 360° North 201 231 5,800 2,500 Climbing FlightAware ADS-B
Wed 02:43:42 PM 39.9023 -104.6960 360° North 200 230 6,100 2,100 Climbing FlightAware ADS-B
Wed 02:43:54 PM 39.9137 -104.6960 360° North 209 241 6,500 1,875 Climbing FlightAware ADS-B
Wed 02:43:58 PM 39.9177 -104.6970 349° North 214 246 6,600 750 Climbing FlightAware ADS-B
Wed 02:44:02 PM 39.9215 -104.6970 360° North 219 252 6,600 500 Level FlightAware ADS-B
Wed 02:44:10 PM 39.9300 -104.6990 350° North 231 266 6,700 1,000 Climbing FlightAware ADS-B
Wed 02:44:26 PM 39.9474 -104.7050 345° North 254 292 7,000 1,548 Climbing FlightAware ADS-B
Wed 02:44:41 PM 39.9656 -104.7100 348° North 266 306 7,500 1,800 Climbing FlightAware ADS-B
Wed 02:44:56 PM 39.9845 -104.7150 349° North 279 321 7,900 2,200 Climbing FlightAware ADS-B
Wed 02:45:11 PM 40.0039 -104.7200 349° North 283 326 8,600 3,188 Climbing FlightAware ADS-B
Wed 02:45:28 PM 40.0251 -104.7260 348° North 279 321 9,600 3,214 Climbing FlightAware ADS-B
Wed 02:45:39 PM 40.0384 -104.7300 347° North 280 322 10,100 2,000 Climbing FlightAware ADS-B
Wed 02:45:55 PM 40.0587 -104.7370 345° North 298 343 10,500 1,435 Climbing FlightAware ADS-B
Wed 02:46:25 PM 40.1001 -104.7560 341° North 328 377 11,200 2,000 Climbing FlightAware ADS-B
Wed 02:46:55 PM 40.1442 -104.7770 340° North 337 388 12,500 2,710 Climbing FlightAware ADS-B
Wed 02:47:27 PM 40.1919 -104.7990 341° North 344 396 14,000 2,667 Climbing FlightAware ADS-B
Wed 02:47:58 PM 40.2390 -104.8210 340° North 348 400 15,300 2,613 Climbing FlightAware ADS-B
Wed 02:48:29 PM 40.2860 -104.8430 340° North 352 405 16,700 2,516 Climbing FlightAware ADS-B
Wed 02:49:00 PM 40.3347 -104.8660 340° North 358 412 17,900 2,182 Climbing FlightAware ADS-B
Wed 02:49:35 PM 40.3893 -104.8910 341° North 366 421 19,100 2,123 Climbing FlightAware ADS-B
Wed 02:50:05 PM 40.4390 -104.9150 340° North 375 432 20,200 2,066 Climbing FlightAware ADS-B
Wed 02:50:36 PM 40.4886 -104.9380 341° North 383 441 21,200 1,770 Climbing FlightAware ADS-B
Wed 02:51:06 PM 40.5398 -104.9620 340° North 395 455 22,000 1,770 Climbing FlightAware ADS-B
Wed 02:51:37 PM 40.5937 -104.9870 341° North 401 461 23,000 1,967 Climbing FlightAware ADS-B
Wed 02:52:07 PM 40.6462 -105.0120 340° North 404 465 24,000 1,869 Climbing FlightAware ADS-B
Wed 02:52:38 PM 40.7013 -105.0380 340° North 410 472 24,900 1,731 Climbing FlightAware ADS-B
Wed 02:52:59 PM 40.7385 -105.0560 340° North 413 475 25,500 1,688 Climbing FlightAware ADS-B
Wed 02:53:10 PM 40.7577 -105.0680 335° Northwest 414 476 25,800 1,655 Climbing FlightAware ADS-B
Wed 02:53:28 PM 40.7876 -105.0940 327° Northwest 417 480 26,300 1,714 Climbing FlightAware ADS-B
Wed 02:54:06 PM 40.8438 -105.1570 320° Northwest 421 484 27,400 1,630 Climbing FlightAware ADS-B
Wed 02:54:49 PM 40.9072 -105.2290 319° Northwest 425 489 28,500 1,481 Climbing FlightAware ADS-B
Wed 02:55:23 PM 40.9580 -105.2860 320° Northwest 425 489 29,300 1,333 Climbing FlightAware ADS-B
Wed 02:56:10 PM 41.0280 -105.3680 319° Northwest 436 502 30,300 1,333 Climbing FlightAware ADS-B
Wed 02:56:53 PM 41.0860 -105.4530 312° West 437 503 31,300 1,280 Climbing FlightAware ADS-B
Wed 02:57:25 PM 41.1290 -105.5210 310° West 441 507 31,900 1,147 Climbing FlightAware ADS-B
Wed 02:58:01 PM 41.1740 -105.5950 309° West 446 513 32,600 1,083 Climbing FlightAware ADS-B
Wed 02:58:37 PM 41.2220 -105.6730 309° West 450 518 33,200 971 Climbing FlightAware ADS-B
Wed 02:59:09 PM 41.2640 -105.7410 309° West 454 522 33,700 1,000 Climbing FlightAware ADS-B
Wed 02:59:43 PM 41.3100 -105.8150 310° West 456 525 34,300 1,167 Climbing FlightAware ADS-B
Wed 03:00:21 PM 41.3630 -105.8960 311° West 455 524 35,100 1,371 Climbing FlightAware ADS-B
Wed 03:00:53 PM 41.4060 -105.9630 311° West 448 516 35,900 1,250 Climbing FlightAware ADS-B
Wed 03:01:33 PM 41.4600 -106.0470 311° West 447 514 36,600 973 Climbing FlightAware ADS-B
Wed 03:02:07 PM 41.5050 -106.1180 310° West 445 512 37,100 857 Climbing FlightAware ADS-B
Wed 03:02:43 PM 41.5530 -106.1930 311° West 444 511 37,600 794 Climbing FlightAware ADS-B
Wed 03:03:15 PM 41.5950 -106.2590 310° West 444 511 38,000 375 Climbing FlightAware ADS-B
Wed 03:03:47 PM 41.6380 -106.3270 310° West 444 511 38,000  Level FlightAware ADS-B
Wed 03:04:25 PM 41.6860 -106.4040 310° West 446 513 38,000  Level FlightAware ADS-B
Wed 03:05:06 PM 41.7330 -106.4780 310° West 446 513 38,000  Level FlightAware ADS-B
Wed 03:05:52 PM 41.7840 -106.5610 310° West 446 513 38,000  Level FlightAware ADS-B
Wed 03:06:29 PM 41.8260 -106.6280 310° West 446 513 38,000  Level FlightAware ADS-B
Wed 03:07:05 PM 41.8670 -106.6930 310° West 446 513 38,000  Level FlightAware ADS-B
Wed 03:07:41 PM 41.9070 -106.7570 310° West 446 513 38,000  Level FlightAware ADS-B
Wed 03:08:17 PM 41.9480 -106.8230 310° West 446 513 38,000  Level FlightAware ADS-B
Wed 03:08:53 PM 41.9880 -106.8880 310° West 446 513 38,000  Level FlightAware ADS-B
Wed 03:09:29 PM 42.0290 -106.9530 310° West 446 513 38,000  Level FlightAware ADS-B
Wed 03:10:05 PM 42.0700 -107.0180 310° West 446 513 38,000  Level FlightAware ADS-B
Wed 03:10:43 PM 42.1120 -107.0870 309° West 446 513 38,000  Level FlightAware ADS-B
Wed 03:11:23 PM 42.1580 -107.1590 311° West 446 513 38,000  Level FlightAware ADS-B
Wed 03:11:59 PM 42.1980 -107.2240 310° West 446 513 38,000  Level FlightAware ADS-B
Wed 03:12:35 PM 42.2390 -107.2900 310° West 446 513 38,000  Level FlightAware ADS-B
Wed 03:13:13 PM 42.2820 -107.3590 310° West 446 513 38,000  Level FlightAware ADS-B
Wed 03:13:49 PM 42.3220 -107.4240 310° West 446 513 38,000  Level FlightAware ADS-B
Wed 03:14:13 PM 42.3490 -107.4680 310° West 446 513 38,000  Level FlightAware ADS-B
Wed 03:14:50 PM 42.4981 -107.7189 310° West 446 513 38,000  Level Salt Lake Center
Wed 03:15:52 PM 42.5739 -107.8433 310° West 448 516 38,000  Level Salt Lake Center
Wed 03:16:54 PM 42.6617 -107.9892 309° West 447 514 38,000  Level Salt Lake Center
Wed 03:17:56 PM 42.7375 -108.1183 309° West 453 521 38,000  Level Salt Lake Center
Wed 03:18:58 PM 42.8264 -108.2689 309° West 456 525 38,000  Level Salt Lake Center
Wed 03:20:00 PM 42.9033 -108.4000 309° West 461 531 38,000  Level Salt Lake Center
Wed 03:21:03 PM 42.9836 -108.5364 309° West 455 524 38,000  Level Salt Lake Center
Wed 03:22:05 PM 43.0681 -108.6658 312° West 455 524 38,000  Level Salt Lake Center
Wed 03:23:07 PM 43.1714 -108.8181 313° West 454 522 38,000  Level Salt Lake Center
Wed 03:24:09 PM 43.2575 -108.9458 313° West 456 525 38,000  Level Salt Lake Center
Wed 03:25:11 PM 43.3347 -109.0817 308° West 453 521 38,000  Level Salt Lake Center
Wed 03:26:13 PM 43.4133 -109.2192 308° West 456 525 38,000  Level Salt Lake Center
Wed 03:27:15 PM 43.4911 -109.3575 308° West 458 527 38,000  Level Salt Lake Center
Wed 03:28:17 PM 43.5811 -109.5156 308° West 451 519 38,000  Level Salt Lake Center
Wed 03:29:19 PM 43.6556 -109.6456 308° West 449 517 38,000  Level Salt Lake Center
Wed 03:30:21 PM 43.7389 -109.7969 307° West 445 512 38,000  Level Salt Lake Center
Wed 03:31:23 PM 43.8119 -109.9258 308° West 445 512 38,000  Level Salt Lake Center
Wed 03:32:25 PM 43.8858 -110.0544 309° West 446 513 38,000  Level Salt Lake Center
Wed 03:33:27 PM 43.9694 -110.2078 307° West 447 514 38,000  Level Salt Lake Center
Wed 03:34:29 PM 44.0422 -110.3386 308° West 446 513 38,000  Level Salt Lake Center
Wed 03:35:31 PM 44.1253 -110.4942 307° West 447 514 38,000  Level Salt Lake Center
Wed 03:36:33 PM 44.1972 -110.6258 307° West 447 514 38,000  Level Salt Lake Center
Wed 03:37:35 PM 44.2803 -110.7797 307° West 447 514 38,000  Level Salt Lake Center
Wed 03:38:38 PM 44.3517 -110.9131 307° West 448 516 38,000  Level Salt Lake Center
Wed 03:39:40 PM 44.4356 -111.0678 307° West 448 516 38,000  Level Salt Lake Center
Wed 03:40:42 PM 44.5064 -111.2003 307° West 447 514 38,000  Level Salt Lake Center
Wed 03:41:44 PM 44.5892 -111.3531 307° West 448 516 38,000  Level Salt Lake Center
Wed 03:42:46 PM 44.6686 -111.5086 306° West 454 522 38,000  Level Salt Lake Center
Wed 03:43:48 PM 44.7400 -111.6436 307° West 453 521 38,000  Level Salt Lake Center
Wed 03:44:50 PM 44.8222 -111.8028 306° West 452 520 38,000  Level Salt Lake Center
Wed 03:45:52 PM 44.8936 -111.9386 307° West 451 519 38,000  Level Salt Lake Center
Wed 03:46:54 PM 44.9633 -112.0750 306° West 449 517 38,000  Level Salt Lake Center
Wed 03:47:56 PM 45.0447 -112.2322 306° West 446 513 38,000  Level Salt Lake Center
Wed 03:48:58 PM 45.1125 -112.3678 305° West 442 509 38,000  Level Salt Lake Center
Wed 03:50:00 PM 45.1922 -112.5228 306° West 438 504 38,000  Level Salt Lake Center
Wed 03:51:02 PM 45.2603 -112.6539 306° West 434 499 38,000  Level Salt Lake Center
Wed 03:52:04 PM 45.3381 -112.8111 305° West 435 501 38,000  Level Salt Lake Center
Wed 03:53:06 PM 45.4033 -112.9414 306° West 433 498 38,000  Level Salt Lake Center
Wed 03:54:08 PM 45.4742 -113.0853 305° West 438 504 38,000  Level Salt Lake Center
Wed 03:55:10 PM 45.5594 -113.2544 306° West 438 504 38,000  Level Salt Lake Center
Wed 03:56:12 PM 45.6297 -113.3944 306° West 435 501 38,000  Level Salt Lake Center
Wed 03:57:15 PM 45.6986 -113.5353 305° West 432 497 38,000  Level Salt Lake Center
Wed 03:58:17 PM 45.7608 -113.6606 305° West 439 505 38,000 -48 Level Salt Lake Center
Wed 03:59:19 PM 45.8450 -113.8322 305° West 439 505 37,900  Descending Salt Lake Center
Wed 04:00:21 PM 45.9158 -113.9778 305° West 444 511 38,000  Climbing Salt Lake Center
Wed 04:01:23 PM 45.9847 -114.1231 304° West 441 507 37,900 -48 Descending Salt Lake Center
Wed 04:02:25 PM 46.0542 -114.2686 305° West 442 509 37,900  Level Salt Lake Center
Wed 04:03:27 PM 46.1247 -114.4156 305° West 445 512 37,900 48 Level Salt Lake Center
Wed 04:04:29 PM 46.1933 -114.5636 304° West 445 512 38,000  Climbing Salt Lake Center
Wed 04:05:31 PM 46.2764 -114.7400 304° West 444 511 37,900  Descending Salt Lake Center
Wed 04:06:33 PM 46.3458 -114.8867 304° West 443 510 38,000  Climbing Salt Lake Center
Wed 04:07:35 PM 46.4158 -115.0361 304° West 447 514 37,900  Descending Salt Lake Center
Wed 04:08:37 PM 46.4858 -115.1872 304° West 449 517 38,000 484 Climbing Salt Lake Center
Wed 04:09:39 PM 46.5633 -115.3550 304° West 448 516 38,900 677 Climbing Salt Lake Center
Wed 04:10:41 PM 46.6231 -115.4878 303° West 446 513 39,400 484 Climbing Salt Lake Center
Wed 04:11:43 PM 46.7061 -115.6697 304° West 449 517 39,900 290 Climbing Salt Lake Center
Wed 04:12:45 PM 46.7750 -115.8208 304° West 449 517 40,000 48 Climbing Salt Lake Center
Wed 04:13:47 PM 46.8425 -115.9725 303° West 447 514 40,000  Level Salt Lake Center
Wed 04:14:49 PM 46.9042 -116.1094 303° West 445 512 40,000 -48 Level Salt Lake Center
Wed 04:15:51 PM 46.9856 -116.2925 303° West 449 517 39,900 -42 Descending Salt Lake Center
Wed 04:17:12 PM 47.0661 -116.4747 303° West 446 513 39,900  Level Seattle Center
Wed 04:18:13 PM 47.1478 -116.6600 303° West 451 519 39,900  Level Seattle Center
Wed 04:19:15 PM 47.2150 -116.8139 303° West 449 517 39,900 49 Level Seattle Center
Wed 04:20:16 PM 47.2822 -116.9697 302° West 448 516 40,000  Climbing Seattle Center
Wed 04:21:17 PM 47.3506 -117.1283 302° West 452 520 39,900 -49 Descending Seattle Center
Wed 04:22:18 PM 47.4189 -117.2892 302° West 454 522 39,900 16 Level Seattle Center
Wed 04:27:25 PM 47.7600 -118.1110 302° West 454 522 40,000 18 Climbing FlightAware ADS-B
Wed 04:27:54 PM 47.7900 -118.1840 301° West 452 520 40,000  Level FlightAware ADS-B
Wed 04:28:33 PM 47.8320 -118.2910 300° West 451 519 40,000  Level FlightAware ADS-B
Wed 04:29:09 PM 47.8710 -118.3890 301° West 452 520 40,000  Level FlightAware ADS-B
Wed 04:29:45 PM 47.9090 -118.4850 301° West 452 520 40,000  Level FlightAware ADS-B
Wed 04:30:18 PM 47.9440 -118.5720 301° West 451 519 40,000  Level FlightAware ADS-B
Wed 04:30:55 PM 47.9800 -118.6650 300° West 452 520 40,000  Level FlightAware ADS-B
Wed 04:31:17 PM 48.0064 -118.7320 301° West 454 522 40,000  Level FlightAware ADS-B
Wed 04:31:48 PM 48.0389 -118.8160 300° West 455 524 40,000  Level FlightAware ADS-B
Wed 04:32:26 PM 48.0793 -118.9190 300° West 456 525 40,000  Level FlightAware ADS-B
Wed 04:33:00 PM 48.1156 -119.0130 300° West 457 526 40,000  Level FlightAware ADS-B
Wed 04:33:31 PM 48.1484 -119.0980 300° West 459 528 40,000  Level FlightAware ADS-B
Wed 04:34:04 PM 48.1831 -119.1880 300° West 459 528 40,000  Level FlightAware ADS-B
Wed 04:34:34 PM 48.2147 -119.2700 300° West 458 527 40,000  Level FlightAware ADS-B
Wed 04:35:05 PM 48.2466 -119.3540 300° West 459 528 40,000  Level FlightAware ADS-B
Wed 04:35:35 PM 48.2790 -119.4390 300° West 460 529 40,000  Level FlightAware ADS-B
Wed 04:36:07 PM 48.3123 -119.5260 300° West 458 527 40,000  Level FlightAware ADS-B
Wed 04:36:38 PM 48.3442 -119.6100 300° West 459 528 40,000  Level FlightAware ADS-B
Wed 04:37:08 PM 48.3755 -119.6940 299° West 460 529 40,000  Level FlightAware ADS-B
Wed 04:37:38 PM 48.4075 -119.7780 300° West 459 528 40,000  Level FlightAware ADS-B
Wed 04:38:08 PM 48.4389 -119.8620 299° West 458 527 40,000  Level FlightAware ADS-B
Wed 04:38:38 PM 48.4701 -119.9450 300° West 459 528 40,000  Level FlightAware ADS-B
Wed 04:39:08 PM 48.5014 -120.0290 299° West 460 529 40,000  Level FlightAware ADS-B
Wed 04:39:39 PM 48.5334 -120.1150 299° West 460 529 40,000  Level FlightAware ADS-B
Wed 04:40:09 PM 48.5644 -120.1990 299° West 459 528 40,000  Level FlightAware ADS-B
Wed 04:40:48 PM 48.6049 -120.3090 299° West 461 531 40,000  Level FlightAware ADS-B
Wed 04:41:19 PM 48.6364 -120.3940 299° West 463 533 40,000  Level FlightAware ADS-B
Wed 04:41:49 PM 48.6680 -120.4800 299° West 466 536 40,000  Level FlightAware ADS-B
Wed 04:42:20 PM 48.6999 -120.5670 299° West 465 535 40,000  Level FlightAware ADS-B
Wed 04:42:50 PM 48.7309 -120.6530 299° West 466 536 40,000  Level FlightAware ADS-B
Wed 04:43:20 PM 48.7624 -120.7390 299° West 467 537 40,000  Level FlightAware ADS-B
Wed 04:43:53 PM 48.7966 -120.8340 299° West 467 537 40,000  Level FlightAware ADS-B
Wed 04:44:23 PM 48.8276 -120.9200 299° West 467 537 40,000  Level FlightAware ADS-B
Wed 04:44:57 PM 48.8630 -121.0150 300° West 468 539 40,000  Level FlightAware ADS-B
Wed 04:45:25 PM 48.8950 -121.0960 301° West 468 539 40,000  Level FlightAware ADS-B
Wed 04:45:45 PM 48.9159 -121.1500 301° West 469 540 40,000  Level FlightAware ADS-B
Wed 04:46:18 PM 48.9527 -121.2450 301° West 469 540 40,000  Level FlightAware ADS-B
Wed 04:46:49 PM 48.9858 -121.3320 300° West 468 539 40,000  Level FlightAware ADS-B
Wed 04:47:19 PM 49.0185 -121.4180 300° West 471 542 40,000  Level FlightAware ADS-B
Wed 04:47:50 PM 49.0520 -121.5070 300° West 473 544 40,000  Level FlightAware ADS-B
Wed 04:48:20 PM 49.0849 -121.5940 300° West 473 544 40,000  Level FlightAware ADS-B
Wed 04:48:51 PM 49.1182 -121.6820 300° West 473 544 40,000  Level FlightAware ADS-B
Wed 04:49:21 PM 49.1510 -121.7700 300° West 475 547 40,000  Level FlightAware ADS-B
Wed 04:49:52 PM 49.1854 -121.8610 300° West 474 545 40,000  Level FlightAware ADS-B
Wed 04:50:23 PM 49.2179 -121.9490 300° West 475 547 40,000  Level FlightAware ADS-B
Wed 04:50:53 PM 49.2508 -122.0370 300° West 476 548 40,000  Level FlightAware ADS-B
Wed 04:51:28 PM 49.2890 -122.1400 300° West 478 550 40,000  Level FlightAware ADS-B
Wed 04:51:58 PM 49.3213 -122.2280 299° West 478 550 40,000  Level FlightAware ADS-B
Wed 04:52:29 PM 49.3540 -122.3180 299° West 475 547 40,000  Level FlightAware ADS-B
Wed 04:53:12 PM 49.4009 -122.4450 300° West 475 547 40,000  Level FlightAware ADS-B
Wed 04:53:50 PM 49.4414 -122.5560 299° West 475 547 40,000  Level FlightAware ADS-B
Wed 04:54:46 PM 49.5022 -122.7230 299° West 476 548 40,000  Level FlightAware ADS-B
Wed 04:55:18 PM 49.5358 -122.8170 299° West 479 551 40,000  Level FlightAware ADS-B
Wed 04:55:48 PM 49.5685 -122.9080 299° West 480 552 40,000  Level FlightAware ADS-B
Wed 04:56:18 PM 49.6007 -122.9970 299° West 482 555 40,000  Level FlightAware ADS-B
Wed 04:56:49 PM 49.6336 -123.0900 299° West 484 557 40,000  Level FlightAware ADS-B
Wed 04:57:19 PM 49.6659 -123.1800 299° West 482 555 40,000  Level FlightAware ADS-B
Wed 04:57:50 PM 49.6992 -123.2740 299° West 481 554 40,000  Level FlightAware ADS-B
Wed 04:58:56 PM 49.7690 -123.4710 299° West 485 558 40,000  Level FlightAware ADS-B
Wed 04:59:32 PM 49.8070 -123.5810 298° West 486 559 40,000  Level FlightAware ADS-B
Wed 04:59:59 PM 49.8350 -123.6620 298° West 487 560 40,000  Level FlightAware ADS-B
Wed 05:00:41 PM 49.8790 -123.7870 299° West 487 560 40,000  Level FlightAware ADS-B
Wed 05:00:58 PM 49.8992 -123.8460 298° West 486 559 40,000  Level FlightAware ADS-B
Wed 05:01:30 PM 49.9329 -123.9430 298° West 483 556 40,000  Level FlightAware ADS-B
Wed 05:02:01 PM 49.9652 -124.0370 298° West 482 555 40,000  Level FlightAware ADS-B
Wed 05:02:31 PM 49.9969 -124.1300 298° West 482 555 40,000  Level FlightAware ADS-B
Wed 05:03:07 PM 50.0346 -124.2410 298° West 483 556 40,000  Level FlightAware ADS-B
Wed 05:03:37 PM 50.0620 -124.3210 298° West 485 558 40,000  Level FlightAware ADS-B
Wed 05:04:13 PM 50.0990 -124.4290 298° West 484 557 40,000  Level FlightAware ADS-B
Wed 05:04:47 PM 50.1360 -124.5400 298° West 486 559 40,000  Level FlightAware ADS-B
Wed 05:05:22 PM 50.1740 -124.6530 298° West 487 560 40,000  Level FlightAware ADS-B
Wed 05:05:57 PM 50.2110 -124.7580 299° West 483 556 40,000  Level FlightAware ADS-B
Wed 05:06:32 PM 50.2540 -124.8610 303° West 487 560 40,000  Level FlightAware ADS-B
Wed 05:07:07 PM 50.2970 -124.9670 302° West 488 562 40,000  Level FlightAware ADS-B
Wed 05:07:37 PM 50.3340 -125.0550 303° West 486 559 40,000  Level FlightAware ADS-B
Wed 05:08:17 PM 50.3830 -125.1750 303° West 484 557 40,000  Level FlightAware ADS-B
Wed 05:08:52 PM 50.4260 -125.2790 303° West 483 556 40,000  Level FlightAware ADS-B
Wed 05:09:26 PM 50.4680 -125.3830 302° West 486 559 40,000  Level FlightAware ADS-B
Wed 05:10:02 PM 50.5100 -125.4850 303° West 486 559 40,000  Level FlightAware ADS-B
Wed 05:10:37 PM 50.5530 -125.5910 303° West 486 559 40,000  Level FlightAware ADS-B
Wed 05:11:12 PM 50.5920 -125.6880 302° West 486 559 40,000  Level FlightAware ADS-B
Wed 05:11:54 PM 50.6450 -125.8190 303° West 490 564 40,000  Level FlightAware ADS-B
Wed 05:12:27 PM 50.6850 -125.9210 302° West 492 566 40,000  Level FlightAware ADS-B
Wed 05:13:02 PM 50.7300 -126.0330 302° West 492 566 40,000  Level FlightAware ADS-B
Wed 05:13:40 PM 50.7760 -126.1500 302° West 502 578 40,000  Level FlightAware ADS-B
Wed 05:14:35 PM 50.8430 -126.3190 302° West 503 579 40,000  Level FlightAware ADS-B
Wed 05:15:11 PM 50.8860 -126.4290 302° West 505 581 40,000  Level FlightAware ADS-B
Wed 05:16:00 PM 50.9380 -126.5600 302° West 505 581 40,000  Level FlightAware ADS-B
Wed 05:16:36 PM 50.9850 -126.6820 301° West 505 581 40,000  Level FlightAware ADS-B
Wed 05:17:12 PM 51.0230 -126.7780 302° West 505 581 40,000  Level FlightAware ADS-B
Wed 05:17:48 PM 51.0610 -126.8750 302° West 505 581 40,000  Level FlightAware ADS-B
Wed 05:18:25 PM 51.1000 -126.9740 302° West 505 581 40,000  Level FlightAware ADS-B
Wed 05:19:02 PM 51.1390 -127.0730 302° West 505 581 40,000  Level FlightAware ADS-B
Wed 05:19:38 PM 51.1770 -127.1700 302° West 505 581 40,000  Level FlightAware ADS-B
Wed 05:20:15 PM 51.2160 -127.2690 302° West 505 581 40,000  Level FlightAware ADS-B
Wed 05:20:52 PM 51.2550 -127.3690 302° West 505 581 40,000  Level FlightAware ADS-B
Wed 05:21:28 PM 51.2920 -127.4660 301° West 505 581 40,000  Level FlightAware ADS-B
Wed 05:22:05 PM 51.3310 -127.5660 302° West 505 581 40,000  Level FlightAware ADS-B
Wed 05:22:41 PM 51.3690 -127.6630 302° West 505 581 40,000  Level FlightAware ADS-B
Wed 05:23:18 PM 51.4080 -127.7620 302° West 505 581 40,000  Level FlightAware ADS-B
Wed 05:23:54 PM 51.4460 -127.8600 302° West 505 581 40,000  Level FlightAware ADS-B
Wed 05:24:30 PM 51.4840 -127.9570 302° West 505 581 40,000  Level FlightAware ADS-B
Wed 05:25:06 PM 51.5220 -128.0540 302° West 505 581 40,000  Level FlightAware ADS-B
Wed 05:25:43 PM 51.5610 -128.1550 302° West 505 581 40,000  Level FlightAware ADS-B
Wed 05:26:21 PM 51.6833 -128.5667 302° West 500 575 40,000  Level Vancouver Center
Wed 05:27:21 PM 51.7333 -128.7833 291° West 510 587 40,000  Level Vancouver Center
Wed 05:28:21 PM 51.8167 -128.9833 304° West 510 587 40,000  Level Vancouver Center
Wed 05:29:21 PM 51.8833 -129.1500 303° West 510 587 40,000  Level Vancouver Center
Wed 05:30:21 PM 51.9667 -129.3833 300° West 510 587 40,000  Level Vancouver Center
Wed 05:31:21 PM 52.0167 -129.5833 292° West 510 587 40,000  Level Vancouver Center
Wed 05:32:21 PM 52.1000 -129.7833 304° West 510 587 40,000  Level Vancouver Center
Wed 05:33:21 PM 52.1667 -129.9833 299° West 510 587 40,000  Level Vancouver Center
Wed 05:34:21 PM 52.2167 -130.1833 292° West 510 587 40,000  Level Vancouver Center
Wed 05:35:21 PM 52.3000 -130.3833 304° West 510 587 40,000  Level Vancouver Center
Wed 05:36:21 PM 52.3667 -130.5833 299° West 520 598 40,000  Level Vancouver Center
Wed 05:37:21 PM 52.4333 -130.7833 299° West 520 598 40,000  Level Vancouver Center
Wed 05:38:21 PM 52.5000 -130.9833 299° West 510 587 40,000  Level Vancouver Center
Wed 05:39:21 PM 52.5667 -131.2167 295° West 510 587 40,000  Level Vancouver Center
Wed 05:40:20 PM 52.6333 -131.4000 301° West 510 587 40,000  Level Vancouver Center
Wed 05:41:20 PM 52.7000 -131.6000 299° West 510 587 40,000  Level Vancouver Center
Wed 05:42:20 PM 52.7667 -131.8333 295° West 510 587 40,000  Level Vancouver Center
Wed 05:43:20 PM 52.8333 -132.0500 297° West 510 587 40,000  Level Vancouver Center
Wed 05:44:20 PM 52.9000 -132.2500 299° West 520 598 40,000  Level Vancouver Center
Wed 05:45:20 PM 52.9667 -132.4667 297° West 520 598 40,000  Level Vancouver Center
Wed 05:46:20 PM 53.0167 -132.6667 293° West 520 598 40,000  Level Vancouver Center
Wed 05:47:20 PM 53.0833 -132.9000 296° West 520 598 40,000  Level Vancouver Center
Wed 05:48:20 PM 53.1500 -133.1167 297° West 520 598 40,000  Level Vancouver Center
Wed 05:49:20 PM 53.2167 -133.3167 299° West 520 598 40,000  Level Vancouver Center
Wed 05:50:20 PM 53.2833 -133.5333 297° West 520 598 40,000  Level Vancouver Center
Wed 05:51:20 PM 53.3500 -133.7667 296° West 520 598 40,000  Level Vancouver Center
Wed 05:52:20 PM 53.4000 -133.9833 291° West 520 598 40,000  Level Vancouver Center
Wed 05:53:20 PM 53.4667 -134.2000 297° West 520 598 40,000  Level Vancouver Center
Wed 05:54:20 PM 53.5333 -134.4167 297° West 510 587 40,000  Level Vancouver Center
Wed 05:55:20 PM 53.6000 -134.6167 299° West 510 587 40,000  Level Vancouver Center
Wed 05:56:20 PM 53.6500 -134.8333 291° West 510 587 40,000  Level Vancouver Center
Wed 05:57:20 PM 53.7167 -135.0500 298° West 510 587 40,000  Level Vancouver Center
Wed 05:58:20 PM 53.7833 -135.2667 298° West 510 587 40,000  Level Vancouver Center
Wed 05:59:20 PM 53.8167 -135.4833 285° West 510 587 40,000  Level Vancouver Center
Wed 05:59:54 PM 53.8667 -135.5500 322° Northwest 500 575 40,000  Level Anchorage Center
Wed 06:00:55 PM 53.9333 -135.7667 298° West 500 575 40,000  Level Anchorage Center
Wed 06:01:55 PM 53.9833 -135.9833 292° West 500 575 40,000  Level Anchorage Center
Wed 06:02:54 PM 54.0500 -136.2000 298° West 500 575 40,000  Level Anchorage Center
Wed 06:03:55 PM 54.1167 -136.4000 300° West 500 575 40,000  Level Anchorage Center
Wed 06:04:55 PM 54.1833 -136.6000 300° West 500 575 40,000  Level Anchorage Center
Wed 06:05:55 PM 54.2500 -136.8167 298° West 500 575 40,000  Level Anchorage Center
Wed 06:06:55 PM 54.3167 -137.0167 300° West 490 564 40,000  Level Anchorage Center
Wed 06:07:55 PM 54.3833 -137.2333 298° West 500 575 40,000  Level Anchorage Center
Wed 06:08:55 PM 54.4500 -137.4500 298° West 500 575 40,000  Level Anchorage Center
Wed 06:09:55 PM 54.5167 -137.6500 300° West 500 575 40,000  Level Anchorage Center
Wed 06:10:55 PM 54.5833 -137.8667 298° West 500 575 40,000  Level Anchorage Center
Wed 06:11:55 PM 54.6333 -138.0667 293° West 480 552 40,000  Level Anchorage Center
Wed 06:12:56 PM 54.7000 -138.2833 298° West 490 564 40,000  Level Anchorage Center
Wed 06:13:56 PM 54.7667 -138.5000 298° West 500 575 40,000  Level Anchorage Center
Wed 06:14:56 PM 54.8167 -138.7167 292° West 490 564 40,000  Level Anchorage Center
Wed 06:15:56 PM 54.8833 -138.9333 298° West 500 575 40,000  Level Anchorage Center
Wed 06:16:56 PM 54.9500 -139.1500 298° West 500 575 40,000  Level Anchorage Center
Wed 06:17:56 PM 55.0000 -139.3500 294° West 490 564 40,000  Level Anchorage Center
Wed 06:18:56 PM 55.0667 -139.5667 298° West 500 575 40,000  Level Anchorage Center
Wed 06:19:56 PM 55.1333 -139.7833 298° West 490 564 40,000  Level Anchorage Center
Wed 06:20:56 PM 55.1833 -140.0000 292° West 490 564 40,000  Level Anchorage Center
Wed 06:21:56 PM 55.2500 -140.2167 298° West 490 564 40,000  Level Anchorage Center
Wed 06:22:56 PM 55.3000 -140.4333 292° West 490 564 40,000  Level Anchorage Center
Wed 06:23:57 PM 55.3667 -140.6500 299° West 500 575 40,000  Level Anchorage Center
Wed 06:24:57 PM 55.4333 -140.8833 297° West 510 587 40,000  Level Anchorage Center
Wed 06:25:57 PM 55.4833 -141.0833 294° West 480 552 40,000  Level Anchorage Center
Wed 06:26:57 PM 55.5333 -141.3167 291° West 490 564 40,000  Level Anchorage Center
Wed 06:27:57 PM 55.6000 -141.5333 299° West 490 564 40,000  Level Anchorage Center
Wed 06:28:57 PM 55.6500 -141.7333 294° West 490 564 40,000  Level Anchorage Center
Wed 06:29:57 PM 55.7000 -141.9500 292° West 480 552 40,000  Level Anchorage Center
Wed 06:30:57 PM 55.7500 -142.1833 291° West 480 552 40,000  Level Anchorage Center
Wed 06:31:57 PM 55.8167 -142.4000 299° West 480 552 40,000  Level Anchorage Center
Wed 06:32:57 PM 55.8667 -142.6333 291° West 490 564 40,000  Level Anchorage Center
Wed 06:33:58 PM 55.9167 -142.8500 292° West 490 564 40,000  Level Anchorage Center
Wed 06:34:58 PM 55.9833 -143.0833 297° West 490 564 40,000  Level Anchorage Center
Wed 06:35:58 PM 56.0333 -143.3000 293° West 480 552 40,000  Level Anchorage Center
Wed 06:36:58 PM 56.0833 -143.5167 293° West 490 564 40,000  Level Anchorage Center
Wed 06:37:58 PM 56.1333 -143.7500 291° West 490 564 40,000  Level Anchorage Center
Wed 06:38:58 PM 56.1833 -143.9833 291° West 480 552 40,000  Level Anchorage Center
Wed 06:39:58 PM 56.2333 -144.2000 293° West 490 564 40,000  Level Anchorage Center
Wed 06:40:58 PM 56.2833 -144.4333 291° West 490 564 40,000  Level Anchorage Center
Wed 06:42:00 PM 56.3333 -144.6667 291° West 490 564 40,000  Level Anchorage Center
Wed 06:42:58 PM 56.3833 -144.9000 291° West 480 552 40,000  Level Anchorage Center
Wed 06:43:58 PM 56.4333 -145.1167 293° West 480 552 40,000  Level Anchorage Center
Wed 06:44:58 PM 56.4833 -145.3500 291° West 490 564 40,000  Level Anchorage Center
Wed 06:45:58 PM 56.5333 -145.5833 291° West 490 564 40,000  Level Anchorage Center
Wed 06:46:59 PM 56.5833 -145.8167 291° West 490 564 40,000  Level Anchorage Center
Wed 06:47:59 PM 56.6333 -146.0500 291° West 490 564 40,000  Level Anchorage Center
Wed 06:48:59 PM 56.6833 -146.2833 291° West 490 564 40,000  Level Anchorage Center
Wed 06:49:59 PM 56.7333 -146.5167 291° West 490 564 40,000  Level Anchorage Center
Wed 06:50:59 PM 56.7833 -146.7667 290° West 490 564 40,000  Level Anchorage Center
Wed 06:51:59 PM 56.8167 -147.0000 285° West 490 564 40,000  Level Anchorage Center
Wed 06:52:59 PM 56.8667 -147.2333 291° West 500 575 40,000  Level Anchorage Center
Wed 06:53:59 PM 56.9167 -147.4833 290° West 490 564 40,000  Level Anchorage Center
Wed 06:54:59 PM 56.9667 -147.7167 292° West 490 564 40,000  Level Anchorage Center
Wed 06:55:59 PM 57.0000 -147.9500 285° West 490 564 40,000  Level Anchorage Center
Wed 06:56:59 PM 57.0500 -148.1833 292° West 490 564 40,000  Level Anchorage Center
Wed 06:57:59 PM 57.1000 -148.4333 290° West 490 564 40,000  Level Anchorage Center
Wed 06:59:00 PM 57.1333 -148.6833 284° West 490 564 40,000  Level Anchorage Center
Wed 07:00:00 PM 57.1833 -148.9167 292° West 490 564 40,000  Level Anchorage Center
Wed 07:01:00 PM 57.2167 -149.1667 284° West 490 564 40,000  Level Anchorage Center
Wed 07:02:00 PM 57.2667 -149.4000 292° West 480 552 40,000  Level Anchorage Center
Wed 07:03:00 PM 57.3000 -149.6500 284° West 490 564 40,000  Level Anchorage Center
Wed 07:04:00 PM 57.3500 -149.9000 290° West 500 575 40,000  Level Anchorage Center
Wed 07:05:00 PM 57.3833 -150.1333 285° West 490 564 40,000  Level Anchorage Center
Wed 07:06:00 PM 57.4333 -150.3833 290° West 500 575 40,000  Level Anchorage Center
Wed 07:07:00 PM 57.4667 -150.6333 284° West 490 564 40,000  Level Anchorage Center
Wed 07:08:01 PM 57.5000 -150.8833 284° West 500 575 40,000  Level Anchorage Center
Wed 07:09:00 PM 57.5500 -151.1000 293° West 500 575 40,000  Level Anchorage Center
Wed 07:10:01 PM 57.5833 -151.3500 284° West 490 564 40,000  Level Anchorage Center
Wed 07:11:01 PM 57.6167 -151.6000 284° West 490 564 40,000  Level Anchorage Center
Wed 07:12:01 PM 57.6500 -151.8500 284° West 500 575 40,000  Level Anchorage Center
Wed 07:13:01 PM 57.6833 -152.1000 284° West 500 575 40,000  Level Anchorage Center
Wed 07:14:02 PM 57.7167 -152.3667 283° West 500 575 40,000  Level Anchorage Center
Wed 07:15:02 PM 57.7500 -152.6167 284° West 490 564 40,000  Level Anchorage Center
Wed 07:16:01 PM 57.7833 -152.8667 284° West 480 552 40,000  Level Anchorage Center
Wed 07:17:01 PM 57.8167 -153.1167 284° West 490 564 40,000  Level Anchorage Center
Wed 07:18:02 PM 57.8500 -153.3667 284° West 490 564 40,000  Level Anchorage Center
Wed 07:19:02 PM 57.8833 -153.6167 284° West 490 564 40,000  Level Anchorage Center
Wed 07:20:02 PM 57.9167 -153.8667 284° West 490 564 40,000  Level Anchorage Center
Wed 07:21:02 PM 57.9500 -154.1167 284° West 490 564 40,000  Level Anchorage Center
Wed 07:22:02 PM 57.9833 -154.3667 284° West 490 564 40,000  Level Anchorage Center
Wed 07:23:02 PM 58.0000 -154.6333 277° West 490 564 40,000  Level Anchorage Center
Wed 07:24:02 PM 58.0333 -154.8833 284° West 490 564 40,000  Level Anchorage Center
Wed 07:25:03 PM 58.0667 -155.1333 284° West 500 575 40,000  Level Anchorage Center
Wed 07:26:03 PM 58.1000 -155.4000 283° West 500 575 40,000  Level Anchorage Center
Wed 07:27:03 PM 58.1333 -155.6500 284° West 490 564 40,000  Level Anchorage Center
Wed 07:28:03 PM 58.1500 -155.9167 277° West 500 575 40,000  Level Anchorage Center
Wed 07:29:03 PM 58.1833 -156.1833 283° West 490 564 40,000  Level Anchorage Center
Wed 07:30:03 PM 58.2000 -156.4333 277° West 490 564 40,000  Level Anchorage Center
Wed 07:31:03 PM 58.2333 -156.7000 283° West 490 564 40,000  Level Anchorage Center
Wed 07:32:03 PM 58.2500 -156.9667 277° West 490 564 40,000  Level Anchorage Center
Wed 07:33:03 PM 58.2833 -157.2167 284° West 490 564 40,000  Level Anchorage Center
Wed 07:34:03 PM 58.3000 -157.4833 277° West 490 564 40,000  Level Anchorage Center
Wed 07:35:03 PM 58.3333 -157.7500 284° West 490 564 40,000  Level Anchorage Center
Wed 07:36:03 PM 58.3500 -158.0000 277° West 490 564 40,000  Level Anchorage Center
Wed 07:37:47 PM 58.4000 -158.4167 283° West 500 575 40,000  Level Anchorage Center
Wed 07:38:48 PM 58.4167 -158.6833 277° West 490 564 40,000  Level Anchorage Center
Wed 07:39:48 PM 58.4333 -158.9500 277° West 500 575 40,000  Level Anchorage Center
Wed 07:40:48 PM 58.4500 -159.2167 277° West 500 575 40,000  Level Anchorage Center
Wed 07:41:48 PM 58.4833 -159.4833 284° West 490 564 40,000  Level Anchorage Center
Wed 07:42:48 PM 58.5000 -159.7500 277° West 480 552 40,000  Level Anchorage Center
Wed 07:43:48 PM 58.5167 -160.0000 277° West 490 564 40,000  Level Anchorage Center
Wed 07:44:48 PM 58.5333 -160.2667 277° West 480 552 40,000  Level Anchorage Center
Wed 07:45:48 PM 58.5500 -160.5333 277° West 490 564 40,000  Level Anchorage Center
Wed 07:46:48 PM 58.5667 -160.7833 277° West 490 564 40,000  Level Anchorage Center
Wed 07:47:48 PM 58.5833 -161.0500 277° West 490 564 40,000  Level Anchorage Center
Wed 07:48:48 PM 58.6000 -161.3167 277° West 490 564 40,000  Level Anchorage Center
Wed 07:49:48 PM 58.6167 -161.5833 277° West 490 564 40,000  Level Anchorage Center
Wed 07:50:48 PM 58.6333 -161.8500 277° West 490 564 40,000  Level Anchorage Center
Wed 07:51:49 PM 58.6500 -162.1167 277° West 510 587 40,000  Level Anchorage Center
Wed 07:52:48 PM 58.6667 -162.3833 277° West 500 575 40,000  Level Anchorage Center
Wed 07:53:48 PM 58.6833 -162.6667 277° West 480 552 40,000  Level Anchorage Center
Wed 07:54:49 PM 58.6833 -162.9500 270° West 500 575 40,000  Level Anchorage Center
Wed 07:55:49 PM 58.7000 -163.2000 277° West 490 564 40,000  Level Anchorage Center
Wed 07:56:49 PM 58.7000 -163.4833 270° West 500 575 40,000  Level Anchorage Center
Wed 07:57:48 PM 58.7167 -163.7500 277° West 500 575 40,000  Level Anchorage Center
Wed 07:58:49 PM 58.7333 -164.0167 277° West 500 575 40,000  Level Anchorage Center
Wed 07:59:49 PM 58.7333 -164.2833 270° West 500 575 40,000  Level Anchorage Center
Wed 08:00:49 PM 58.7500 -164.5500 277° West 490 564 40,000  Level Anchorage Center
Wed 08:01:49 PM 58.7500 -164.8167 270° West 490 564 40,000  Level Anchorage Center
Wed 08:02:49 PM 58.7500 -165.0833 270° West 490 564 40,000  Level Anchorage Center
Wed 08:03:49 PM 58.7667 -165.3667 277° West 510 587 40,000  Level Anchorage Center
Wed 08:04:49 PM 58.7667 -165.6333 270° West 490 564 40,000  Level Anchorage Center
Wed 08:05:49 PM 58.7667 -165.9000 270° West 500 575 40,000  Level Anchorage Center
Wed 08:06:50 PM 58.7833 -166.1667 277° West 500 575 40,000  Level Anchorage Center
Wed 08:07:50 PM 58.7833 -166.4333 270° West 500 575 40,000  Level Anchorage Center
Wed 08:08:50 PM 58.7833 -166.7167 270° West 500 575 40,000  Level Anchorage Center
Wed 08:09:50 PM 58.8000 -166.9667 277° West 500 575 40,000  Level Anchorage Center
Wed 08:10:50 PM 58.8000 -167.2333 270° West 500 575 40,000  Level Anchorage Center
Wed 08:11:50 PM 58.8000 -167.5000 270° West 500 575 40,000  Level Anchorage Center
Wed 08:12:50 PM 58.8000 -167.7833 270° West 500 575 40,000  Level Anchorage Center
Wed 08:13:50 PM 58.8000 -168.0500 270° West 510 587 40,000  Level Anchorage Center
Wed 08:14:50 PM 58.8000 -168.3167 270° West 500 575 40,000  Level Anchorage Center
Wed 08:15:50 PM 58.8000 -168.6000 270° West 500 575 40,000  Level Anchorage Center
Wed 08:16:50 PM 58.8000 -168.8667 270° West 500 575 40,000  Level Anchorage Center
Wed 08:17:50 PM 58.8000 -169.1500 270° West 510 587 40,000  Level Anchorage Center
Wed 08:18:50 PM 58.8000 -169.4167 270° West 510 587 40,000  Level Anchorage Center
Wed 08:19:50 PM 58.7833 -169.6833 263° West 500 575 40,000  Level Anchorage Center
Wed 08:20:50 PM 58.7833 -169.9667 270° West 510 587 40,000  Level Anchorage Center
Wed 08:21:50 PM 58.7833 -170.2500 270° West 510 587 40,000  Level Anchorage Center
Wed 08:22:50 PM 58.7833 -170.5167 270° West 510 587 40,000  Level Anchorage Center
Wed 08:23:51 PM 58.7667 -170.7833 263° West 500 575 40,000  Level Anchorage Center
Wed 08:24:50 PM 58.7667 -171.0667 270° West 500 575 40,000  Level Anchorage Center
Wed 08:25:51 PM 58.7500 -171.3333 263° West 500 575 40,000  Level Anchorage Center
Wed 08:26:51 PM 58.7500 -171.6000 270° West 490 564 40,000  Level Anchorage Center
Wed 08:27:50 PM 58.7333 -171.8667 263° West 490 564 40,000  Level Anchorage Center
Wed 08:28:51 PM 58.7167 -172.1333 263° West 500 575 40,000  Level Anchorage Center
Wed 08:29:51 PM 58.7000 -172.4000 263° West 500 575 40,000  Level Anchorage Center
Wed 08:30:51 PM 58.6833 -172.6667 263° West 500 575 40,000  Level Anchorage Center
Wed 08:31:51 PM 58.6833 -172.9333 270° West 500 575 40,000  Level Anchorage Center
Wed 08:32:51 PM 58.6667 -173.2167 264° West 510 587 40,000  Level Anchorage Center
Wed 08:33:51 PM 58.6500 -173.4833 263° West 500 575 40,000  Level Anchorage Center
Wed 08:34:51 PM 58.6333 -173.7500 263° West 500 575 40,000  Level Anchorage Center
Wed 08:35:52 PM 58.6167 -174.0167 263° West 510 587 40,000  Level Anchorage Center
Wed 08:36:51 PM 58.6000 -174.2833 263° West 500 575 40,000  Level Anchorage Center
Wed 08:37:51 PM 58.5667 -174.5500 257° West 500 575 40,000  Level Anchorage Center
Wed 08:38:52 PM 58.5500 -174.8333 264° West 510 587 40,000  Level Anchorage Center
Wed 08:39:51 PM 58.5333 -175.1000 263° West 510 587 40,000  Level Anchorage Center
Wed 08:40:52 PM 58.5167 -175.3667 263° West 510 587 40,000  Level Anchorage Center
Wed 08:41:51 PM 58.5000 -175.6333 263° West 500 575 40,000  Level Anchorage Center
Wed 08:42:52 PM 58.4667 -175.9000 257° West 510 587 40,000  Level Anchorage Center
Wed 08:43:52 PM 58.4500 -176.1667 263° West 500 575 40,000  Level Anchorage Center
Wed 08:44:52 PM 58.4333 -176.4333 263° West 510 587 40,000  Level Anchorage Center
Wed 08:45:52 PM 58.4000 -176.7000 257° West 510 587 40,000  Level Anchorage Center
Wed 08:46:52 PM 58.3833 -176.9667 263° West 510 587 40,000  Level Anchorage Center
Wed 08:47:52 PM 58.3333 -177.2333 250° West 500 575 40,000  Level Anchorage Center
Wed 08:50:00 PM 58.2695 -177.4942 245° Southwest  Level FlightAware Approximate
Wed 08:53:04 PM 58.0333 -178.5000 243° Southwest 518 596 40,000  Level Anchorage Center
Wed 08:57:00 PM 57.8636 -179.0848 245° Southwest  Level FlightAware Approximate
Wed 08:58:00 PM 57.8040 -179.3090 244° Southwest  Level FlightAware Approximate
Wed 08:59:00 PM 57.6459 -179.9218 242° Southwest 518 596 40,000  Level FlightAware Transoceanic
Wed 09:00:00 PM 57.5798 179.8441 242° Southwest 518 596 40,000  Level FlightAware Transoceanic
Wed 09:01:00 PM 57.5133 179.6110 242° Southwest 518 596 40,000  Level FlightAware Transoceanic
Wed 09:02:00 PM 57.4463 179.3787 242° Southwest 518 596 40,000  Level FlightAware Transoceanic
Wed 09:02:40 PM 57.4000 179.2000 241° Southwest 519 597 40,000  Level Anchorage Center
Wed 09:03:00 PM 57.3789 179.1473 242° Southwest 518 596 40,000  Level FlightAware Transoceanic
Wed 09:04:00 PM 57.3111 178.9167 241° Southwest 518 596 40,000  Level FlightAware Transoceanic
Wed 09:05:00 PM 57.2429 178.6869 241° Southwest 518 596 40,000  Level FlightAware Transoceanic
Wed 09:06:00 PM 57.1742 178.4581 241° Southwest 518 596 40,000  Level FlightAware Transoceanic
Wed 09:07:00 PM 57.1051 178.2300 241° Southwest 518 596 40,000  Level FlightAware Transoceanic
Wed 09:08:00 PM 57.0357 178.0028 241° Southwest 518 596 40,000  Level FlightAware Transoceanic
Wed 09:09:00 PM 56.9410 177.6821 240° Southwest 519 597 40,000  Level FlightAware Transoceanic
Wed 09:10:00 PM 56.8740 177.4683 240° Southwest 519 597 40,000  Level FlightAware Transoceanic
Wed 09:10:47 PM 56.8333 177.3500 240° Southwest 513 590 40,000  Level Anchorage Center
Wed 09:11:00 PM 56.8066 177.2553 240° Southwest 519 597 40,000  Level FlightAware Transoceanic
Wed 09:12:00 PM 56.7388 177.0430 240° Southwest 519 597 40,000  Level FlightAware Transoceanic
Wed 09:12:12 PM 56.7167 177.0167 240° Southwest 514 592 40,000  Level Anchorage Center
Wed 09:13:00 PM 56.6707 176.8316 240° Southwest 519 597 40,000  Level FlightAware Transoceanic
Wed 09:14:00 PM 56.6022 176.6209 239° Southwest 519 597 40,000  Level FlightAware Transoceanic
Wed 09:15:00 PM 56.5333 176.4109 239° Southwest 519 597 40,000  Level FlightAware Transoceanic
Wed 09:16:00 PM 56.4641 176.2017 239° Southwest 519 597 40,000  Level FlightAware Transoceanic
Wed 09:17:00 PM 56.3989 176.0139 239° Southwest 513 590 40,000  Level FlightAware Transoceanic
Wed 09:17:54 PM 56.3000 175.7667 238° Southwest 510 587 40,000  Level Anchorage Center
Wed 09:18:00 PM 56.2904 175.7149 239° Southwest 514 592 40,000  Level FlightAware Transoceanic
Wed 09:18:54 PM 56.2333 175.5667 239° Southwest 520 598 40,000  Level Anchorage Center
Wed 09:19:00 PM 56.2180 175.5008 239° Southwest 514 592 40,000  Level FlightAware Transoceanic
Wed 09:19:54 PM 56.1667 175.3333 243° Southwest 510 587 40,000  Level Anchorage Center
Wed 09:20:00 PM 56.1452 175.2875 238° Southwest 514 592 40,000  Level FlightAware Transoceanic
Wed 09:20:54 PM 56.0833 175.1000 237° Southwest 510 587 40,000  Level Anchorage Center
Wed 09:21:00 PM 56.0722 175.0750 238° Southwest 514 592 40,000  Level FlightAware Transoceanic
Wed 09:21:54 PM 56.0167 174.9167 237° Southwest 510 587 40,000  Level Anchorage Center
Wed 09:22:00 PM 55.9987 174.8633 238° Southwest 514 592 40,000  Level FlightAware Transoceanic
Wed 09:22:54 PM 55.9333 174.6833 238° Southwest 500 575 40,000  Level Anchorage Center
Wed 09:23:00 PM 55.9249 174.6524 238° Southwest 514 592 40,000  Level FlightAware Transoceanic
Wed 09:23:55 PM 55.8667 174.5000 237° Southwest 510 587 40,000  Level Anchorage Center
Wed 09:24:54 PM 55.7833 174.2667 238° Southwest 510 587 40,000  Level Anchorage Center
Wed 09:25:54 PM 55.7167 174.0833 237° Southwest 510 587 40,000  Level Anchorage Center
Wed 09:26:54 PM 55.6333 173.8333 240° Southwest 520 598 40,000  Level Anchorage Center
Wed 09:27:54 PM 55.5667 173.6667 235° Southwest 510 587 40,000  Level Anchorage Center
Wed 09:28:55 PM 55.4833 173.4333 238° Southwest 500 575 40,000  Level Anchorage Center
Wed 09:29:55 PM 55.4000 173.2167 236° Southwest 500 575 40,000  Level Anchorage Center
Wed 09:30:54 PM 55.3333 173.0167 240° Southwest 520 598 40,000  Level Anchorage Center
Wed 09:31:55 PM 55.2500 172.8000 236° Southwest 510 587 40,000  Level Anchorage Center
Wed 09:32:55 PM 55.1667 172.6333 229° Southwest 500 575 40,000  Level Anchorage Center
Wed 09:33:55 PM 55.0833 172.4000 238° Southwest 510 587 40,000  Level Anchorage Center
Wed 09:34:55 PM 55.0167 172.2167 238° Southwest 520 598 40,000  Level Anchorage Center
Wed 09:35:55 PM 54.9333 172.0167 234° Southwest 490 564 40,000  Level Anchorage Center
Wed 09:36:55 PM 54.8500 171.8000 236° Southwest 500 575 40,000  Level Anchorage Center
Wed 09:37:55 PM 54.7833 171.6167 238° Southwest 500 575 40,000  Level Anchorage Center
Wed 09:39:55 PM 54.6167 171.2333 233° Southwest 500 575 40,000  Level Anchorage Center
Wed 09:40:56 PM 54.5167 171.0167 232° Southwest 520 598 40,000  Level Anchorage Center
Wed 09:41:56 PM 54.4500 170.8500 236° Southwest 510 587 40,000  Level Anchorage Center
Wed 09:42:55 PM 54.3667 170.6500 234° Southwest 500 575 40,000  Level Anchorage Center
Wed 09:43:55 PM 54.2833 170.4667 232° Southwest 530 610 40,000  Level Anchorage Center
Wed 09:44:56 PM 54.2000 170.2667 235° Southwest 490 564 40,000  Level Anchorage Center
Wed 09:45:55 PM 54.1167 170.0500 237° Southwest 520 598 40,000  Level Anchorage Center
Wed 09:46:56 PM 54.0333 169.8833 230° Southwest 510 587 40,000  Level Anchorage Center
Wed 09:47:56 PM 53.9500 169.6833 235° Southwest 490 564 40,000  Level Anchorage Center
Wed 09:48:56 PM 53.8833 169.5333 233° Southwest 490 564 40,000  Level Anchorage Center
Wed 09:50:56 PM 53.7167 169.1500 234° Southwest 510 587 40,000  Level Anchorage Center
Wed 09:51:56 PM 53.6333 168.9333 237° Southwest 530 610 40,000  Level Anchorage Center
Wed 09:53:56 PM 53.5000 168.5333 241° Southwest 510 587 40,000  Level Anchorage Center
Wed 09:54:56 PM 53.4333 168.3167 243° Southwest 490 564 40,000  Level Anchorage Center
Wed 09:55:56 PM 53.3667 168.1500 236° Southwest 490 564 40,000  Level Anchorage Center
Wed 09:56:56 PM 53.3000 167.9333 243° Southwest 470 541 40,000  Level Anchorage Center
Wed 09:58:00 PM 53.2275 167.7282 240° Southwest  Level FlightAware Approximate
Wed 10:00:52 PM 53.0667 167.2833 239° Southwest 493 567 40,000  Level Anchorage Center
Wed 10:05:00 PM 52.7433 166.3993 239° Southwest  Level FlightAware Approximate
Wed 10:06:00 PM 52.6729 166.2119 238° Southwest  Level FlightAware Approximate
Wed 10:07:00 PM 52.5818 165.9719 238° Southwest 493 567 40,000  Level FlightAware Transoceanic
Wed 10:08:00 PM 52.5114 165.7870 238° Southwest 493 567 40,000  Level FlightAware Transoceanic
Wed 10:09:00 PM 52.4406 165.6026 238° Southwest 493 567 40,000  Level FlightAware Transoceanic
Wed 10:09:52 PM 52.3833 165.4500 238° Southwest 493 567 40,000  Level Anchorage Center
Wed 10:10:00 PM 52.3696 165.4188 238° Southwest 493 567 40,000  Level FlightAware Transoceanic
Wed 10:11:00 PM 52.2983 165.2357 237° Southwest 493 567 40,000  Level FlightAware Transoceanic
Wed 10:12:00 PM 52.2268 165.0531 237° Southwest 493 567 40,000  Level FlightAware Transoceanic
Wed 10:13:00 PM 52.1549 164.8711 237° Southwest 493 567 40,000  Level FlightAware Transoceanic
Wed 10:14:00 PM 52.0828 164.6896 237° Southwest 493 567 40,000  Level FlightAware Transoceanic
Wed 10:15:00 PM 52.0103 164.5088 237° Southwest 493 567 40,000  Level FlightAware Transoceanic
Wed 10:16:00 PM 51.9492 164.3539 237° Southwest 493 567 40,000  Level FlightAware Transoceanic
Wed 10:17:00 PM 51.8759 164.1732 237° Southwest 493 567 40,000  Level FlightAware Transoceanic
Wed 10:18:00 PM 51.8023 163.9932 236° Southwest 493 567 40,000  Level FlightAware Transoceanic
Wed 10:19:00 PM 51.7285 163.8138 236° Southwest 493 567 40,000  Level FlightAware Transoceanic
Wed 10:19:28 PM 51.6667 163.6833 236° Southwest 487 560 40,000  Level Anchorage Center
Wed 10:19:49 PM 51.6500 163.6500 236° Southwest 494 568 40,000  Level Anchorage Center
Wed 10:20:00 PM 51.6543 163.6349 236° Southwest 493 567 40,000  Level FlightAware Transoceanic
Wed 10:21:00 PM 51.5799 163.4567 236° Southwest 493 567 40,000  Level FlightAware Transoceanic
Wed 10:22:00 PM 51.5052 163.2790 236° Southwest 493 567 40,000  Level FlightAware Transoceanic
Wed 10:23:00 PM 51.4302 163.1019 236° Southwest 493 567 40,000  Level FlightAware Transoceanic
Wed 10:24:00 PM 51.3550 162.9254 236° Southwest 493 567 40,000  Level FlightAware Transoceanic
Wed 10:25:00 PM 51.2311 162.6511 235° Southwest 487 560 40,000  Level FlightAware Transoceanic
Wed 10:26:00 PM 51.1817 162.5416 235° Southwest 494 568 40,000  Level FlightAware Transoceanic
Wed 10:27:00 PM 51.1026 162.3590 235° Southwest 494 568 40,000  Level FlightAware Transoceanic
Wed 10:28:00 PM 51.0233 162.1771 235° Southwest 494 568 40,000  Level FlightAware Transoceanic
Wed 10:29:00 PM 50.9436 161.9958 235° Southwest 494 568 40,000  Level FlightAware Transoceanic
Wed 10:29:04 PM 50.9500 162.0000 235° Southwest 472 543 40,000  Level Anchorage Center
Wed 10:30:00 PM 50.8638 161.8152 235° Southwest 494 568 40,000  Level FlightAware Transoceanic
Wed 10:31:00 PM 50.7836 161.6351 235° Southwest 494 568 40,000  Level FlightAware Transoceanic
Wed 10:32:00 PM 50.7031 161.4557 235° Southwest 494 568 40,000  Level FlightAware Transoceanic
Wed 10:33:00 PM 50.6224 161.2769 234° Southwest 494 568 40,000  Level FlightAware Transoceanic
Wed 10:34:00 PM 50.5414 161.0987 234° Southwest 494 568 40,000  Level FlightAware Transoceanic
Wed 10:35:00 PM 50.4946 160.9901 234° Southwest 472 543 40,000  Level FlightAware Transoceanic
Wed 10:36:00 PM 50.4178 160.8237 234° Southwest 472 543 40,000  Level FlightAware Transoceanic
Wed 10:37:00 PM 50.3409 160.6578 234° Southwest 472 543 40,000  Level FlightAware Transoceanic
Wed 10:38:00 PM 50.2636 160.4925 234° Southwest 472 543 40,000  Level FlightAware Transoceanic
Wed 10:38:40 PM 50.2167 160.4000 234° Southwest 447 514 40,000  Level Anchorage Center
Wed 10:39:00 PM 50.1862 160.3277 234° Southwest 472 543 40,000  Level FlightAware Transoceanic
Wed 10:39:00 PM 50.2000 160.3833 234° Southwest 476 548 40,000  Level Anchorage Center
Wed 10:40:00 PM 50.1085 160.1634 234° Southwest 472 543 40,000  Level FlightAware Transoceanic
Wed 10:41:00 PM 50.0306 159.9996 233° Southwest 472 543 40,000  Level FlightAware Transoceanic
Wed 10:42:00 PM 49.9525 159.8364 233° Southwest 472 543 40,000  Level FlightAware Transoceanic
Wed 10:43:00 PM 49.8741 159.6738 233° Southwest 472 543 40,000  Level FlightAware Transoceanic
Wed 10:44:00 PM 49.7887 159.4987 233° Southwest 447 514 40,000  Level FlightAware Transoceanic
Wed 10:45:00 PM 49.7167 159.3500 233° Southwest 476 548 40,000  Level FlightAware Transoceanic
Wed 10:46:00 PM 49.6356 159.1846 233° Southwest 476 548 40,000  Level FlightAware Transoceanic
Wed 10:47:00 PM 49.5544 159.0198 233° Southwest 476 548 40,000  Level FlightAware Transoceanic
Wed 10:48:00 PM 49.4729 158.8555 233° Southwest 476 548 40,000  Level FlightAware Transoceanic
Wed 10:49:00 PM 49.3912 158.6918 232° Southwest 476 548 40,000  Level FlightAware Transoceanic
Wed 10:50:00 PM 49.3092 158.5286 232° Southwest 476 548 40,000  Level FlightAware Transoceanic
Wed 10:51:00 PM 49.2270 158.3659 232° Southwest 476 548 40,000  Level FlightAware Transoceanic
Wed 10:52:00 PM 49.1446 158.2038 232° Southwest 476 548 40,000  Level FlightAware Transoceanic
Wed 10:53:00 PM 49.0619 158.0422 232° Southwest 476 548 40,000  Level FlightAware Transoceanic
Wed 10:54:00 PM 48.9791 157.8812 232° Southwest 476 548 40,000  Level FlightAware Transoceanic
Wed 10:55:00 PM 48.8960 157.7207 232° Southwest 476 548 40,000  Level FlightAware Transoceanic
Wed 10:56:00 PM 48.8127 157.5607 232° Southwest 476 548 40,000  Level FlightAware Transoceanic
Wed 10:57:00 PM 48.7291 157.4013 231° Southwest 476 548 40,000  Level FlightAware Transoceanic
Wed 10:58:00 PM 48.6454 157.2424 231° Southwest 476 548 40,000  Level FlightAware Transoceanic
Wed 10:59:00 PM 48.5614 157.0840 231° Southwest 476 548 40,000  Level FlightAware Transoceanic
Wed 11:00:00 PM 48.4772 156.9262 231° Southwest 476 548 40,000  Level FlightAware Transoceanic
Wed 11:01:00 PM 48.3928 156.7688 231° Southwest 476 548 40,000  Level FlightAware Transoceanic
Wed 11:02:00 PM 48.3082 156.6120 231° Southwest 476 548 40,000  Level FlightAware Transoceanic
Wed 11:03:00 PM 48.2234 156.4557 231° Southwest 476 548 40,000  Level FlightAware Transoceanic
Wed 11:04:00 PM 48.1383 156.3000 231° Southwest 476 548 40,000  Level FlightAware Transoceanic
Wed 11:05:00 PM 48.0531 156.1447 231° Southwest 476 548 40,000  Level FlightAware Transoceanic
Wed 11:06:00 PM 47.9676 155.9900 230° Southwest 476 548 40,000  Level FlightAware Transoceanic
Wed 11:07:00 PM 47.8820 155.8358 230° Southwest 476 548 40,000  Level FlightAware Transoceanic
Wed 11:08:00 PM 47.7961 155.6820 230° Southwest 476 548 40,000  Level FlightAware Transoceanic
Wed 11:09:00 PM 47.7100 155.5288 230° Southwest 476 548 40,000  Level FlightAware Transoceanic
Wed 11:10:00 PM 47.6237 155.3761 230° Southwest 476 548 40,000  Level FlightAware Transoceanic
Wed 11:11:00 PM 47.5373 155.2239 230° Southwest 476 548 40,000  Level FlightAware Transoceanic
Wed 11:12:00 PM 47.4506 155.0722 230° Southwest 476 548 40,000  Level FlightAware Transoceanic
Wed 11:13:00 PM 47.3637 154.9210 230° Southwest 476 548 40,000  Level FlightAware Transoceanic
Wed 11:14:00 PM 47.2766 154.7703 230° Southwest 476 548 40,000  Level FlightAware Transoceanic
Wed 11:15:00 PM 47.1893 154.6201 229° Southwest 476 548 40,000  Level FlightAware Transoceanic
Wed 11:16:00 PM 47.1019 154.4704 229° Southwest 476 548 40,000  Level FlightAware Transoceanic
Wed 11:17:00 PM 47.0142 154.3212 229° Southwest 476 548 40,000  Level FlightAware Transoceanic
Wed 11:18:00 PM 46.9263 154.1725 229° Southwest 476 548 40,000  Level FlightAware Transoceanic
Wed 11:19:00 PM 46.8383 154.0242 229° Southwest 476 548 40,000  Level FlightAware Transoceanic
Wed 11:20:00 PM 46.7501 153.8765 229° Southwest 476 548 40,000  Level FlightAware Transoceanic
Wed 11:21:00 PM 46.6616 153.7292 229° Southwest 476 548 40,000  Level FlightAware Transoceanic
Wed 11:22:00 PM 46.5730 153.5824 229° Southwest 476 548 40,000  Level FlightAware Transoceanic
Wed 11:23:00 PM 46.4842 153.4361 229° Southwest 476 548 40,000  Level FlightAware Transoceanic
Wed 11:24:00 PM 46.3952 153.2903 228° Southwest 476 548 40,000  Level FlightAware Transoceanic
Wed 11:25:00 PM 46.3060 153.1449 228° Southwest 476 548 40,000  Level FlightAware Transoceanic
Wed 11:26:00 PM 46.2184 153.0028 228° Southwest  Level FlightAware Approximate
Wed 11:27:00 PM 46.1308 152.8610 228° Southwest  Level FlightAware Approximate
Wed 11:28:00 PM 46.1319 152.8647 228° Southwest  Level FlightAware Approximate
Wed 11:29:00 PM 46.0434 152.7242 228° Southwest  Level FlightAware Approximate
Wed 11:30:00 PM 45.9547 152.5842 228° Southwest  Level FlightAware Approximate
Wed 11:31:00 PM 45.8658 152.4447 228° Southwest  Level FlightAware Approximate
Wed 11:32:00 PM 45.7768 152.3056 227° Southwest  Level FlightAware Approximate
Wed 11:33:00 PM 45.6876 152.1669 227° Southwest  Level FlightAware Approximate
Wed 11:34:00 PM 45.5983 152.0287 227° Southwest  Level FlightAware Approximate
Wed 11:35:00 PM 45.5088 151.8909 227° Southwest  Level FlightAware Approximate
Wed 11:36:00 PM 45.4191 151.7535 227° Southwest  Level FlightAware Approximate
Wed 11:37:00 PM 45.3293 151.6166 227° Southwest  Level FlightAware Approximate
Wed 11:38:00 PM 45.2393 151.4801 227° Southwest  Level FlightAware Approximate
Wed 11:39:00 PM 45.1491 151.3441 227° Southwest  Level FlightAware Approximate
Wed 11:40:00 PM 45.0588 151.2085 227° Southwest  Level FlightAware Approximate
Wed 11:41:00 PM 44.9683 151.0733 227° Southwest  Level FlightAware Approximate
Wed 11:42:00 PM 44.8776 150.9385 227° Southwest  Level FlightAware Approximate
Wed 11:43:00 PM 44.7868 150.8042 226° Southwest  Level FlightAware Approximate
Wed 11:44:00 PM 44.6959 150.6702 226° Southwest  Level FlightAware Approximate
Wed 11:45:00 PM 44.6047 150.5367 226° Southwest  Level FlightAware Approximate
Wed 11:46:00 PM 44.5135 150.4037 226° Southwest  Level FlightAware Approximate
Wed 11:47:00 PM 44.4220 150.2710 226° Southwest  Level FlightAware Approximate
Wed 11:48:00 PM 44.3304 150.1387 226° Southwest  Level FlightAware Approximate
Wed 11:49:00 PM 44.2387 150.0069 226° Southwest  Level FlightAware Approximate
Wed 11:50:00 PM 44.1468 149.8755 226° Southwest  Level FlightAware Approximate
Wed 11:51:00 PM 44.0548 149.7444 226° Southwest  Level FlightAware Approximate
Wed 11:52:00 PM 43.9626 149.6138 226° Southwest  Level FlightAware Approximate
Wed 11:53:00 PM 43.8703 149.4836 225° Southwest  Level FlightAware Approximate
Wed 11:54:00 PM 43.7778 149.3538 225° Southwest  Level FlightAware Approximate
Wed 11:55:00 PM 43.6852 149.2244 225° Southwest  Level FlightAware Approximate
Wed 11:55:08 PM 43.5330 149.0130 225° Southwest 481 554 40,000  Level FlightAware ADS-B
Wed 11:55:43 PM 43.4740 148.9320 225° Southwest 482 555 40,000  Level FlightAware ADS-B
Wed 11:56:18 PM 43.4190 148.8560 225° Southwest 483 556 40,000  Level FlightAware ADS-B
Wed 11:56:53 PM 43.3620 148.7780 225° Southwest 483 556 40,000  Level FlightAware ADS-B
Wed 11:57:28 PM 43.3080 148.7030 225° Southwest 483 556 40,000  Level FlightAware ADS-B
Wed 11:58:03 PM 43.2500 148.6250 224° Southwest 483 556 40,000  Level FlightAware ADS-B
Wed 11:58:43 PM 43.1870 148.5380 225° Southwest 482 555 40,000  Level FlightAware ADS-B
Wed 11:59:13 PM 43.1400 148.4740 225° Southwest 482 555 40,000  Level FlightAware ADS-B
Wed 11:59:48 PM 43.0830 148.3970 225° Southwest 481 554 40,000  Level FlightAware ADS-B
Thu 12:00:24 AM 43.0270 148.3210 225° Southwest 481 554 40,000  Level FlightAware ADS-B
Thu 12:01:03 AM 42.9630 148.2350 225° Southwest 481 554 40,000  Level FlightAware ADS-B
Thu 12:01:33 AM 42.9150 148.1700 225° Southwest 481 554 40,000  Level FlightAware ADS-B
Thu 12:02:08 AM 42.8580 148.0950 224° Southwest 480 552 40,000  Level FlightAware ADS-B
Thu 12:02:48 AM 42.7950 148.0100 225° Southwest 478 550 40,000  Level FlightAware ADS-B
Thu 12:03:18 AM 42.7470 147.9450 225° Southwest 479 551 40,000  Level FlightAware ADS-B
Thu 12:03:53 AM 42.6910 147.8710 224° Southwest 478 550 40,000  Level FlightAware ADS-B
Thu 12:04:28 AM 42.6350 147.7970 224° Southwest 479 551 40,000  Level FlightAware ADS-B
Thu 12:05:08 AM 42.5710 147.7120 224° Southwest 479 551 40,000  Level FlightAware ADS-B
Thu 12:05:38 AM 42.5230 147.6490 224° Southwest 480 552 40,000  Level FlightAware ADS-B
Thu 12:06:13 AM 42.4660 147.5750 224° Southwest 479 551 40,000  Level FlightAware ADS-B
Thu 12:06:48 AM 42.4100 147.5010 224° Southwest 479 551 40,000  Level FlightAware ADS-B
Thu 12:07:28 AM 42.3460 147.4170 224° Southwest 480 552 40,000  Level FlightAware ADS-B
Thu 12:07:59 AM 42.2980 147.3540 224° Southwest 482 555 40,000  Level FlightAware ADS-B
Thu 12:08:33 AM 42.2400 147.2790 224° Southwest 488 562 40,000  Level FlightAware ADS-B
Thu 12:09:08 AM 42.1840 147.2050 224° Southwest 488 562 40,000  Level FlightAware ADS-B
Thu 12:09:43 AM 42.1270 147.1310 224° Southwest 487 560 40,000  Level FlightAware ADS-B
Thu 12:10:18 AM 42.0710 147.0590 224° Southwest 487 560 40,000  Level FlightAware ADS-B
Thu 12:10:53 AM 42.0140 146.9850 224° Southwest 487 560 40,000  Level FlightAware ADS-B
Thu 12:11:28 AM 41.9570 146.9120 224° Southwest 486 559 40,000  Level FlightAware ADS-B
Thu 12:12:03 AM 41.9000 146.8380 224° Southwest 488 562 40,000  Level FlightAware ADS-B
Thu 12:12:38 AM 41.8420 146.7640 224° Southwest 489 563 40,000  Level FlightAware ADS-B
Thu 12:13:13 AM 41.7870 146.6940 224° Southwest 489 563 40,000  Level FlightAware ADS-B
Thu 12:13:53 AM 41.7200 146.6080 224° Southwest 490 564 40,000  Level FlightAware ADS-B
Thu 12:14:23 AM 41.6710 146.5450 224° Southwest 490 564 40,000  Level FlightAware ADS-B
Thu 12:14:58 AM 41.6140 146.4730 223° Southwest 490 564 40,000  Level FlightAware ADS-B
Thu 12:15:34 AM 41.5560 146.4000 223° Southwest 490 564 40,000  Level FlightAware ADS-B
Thu 12:16:13 AM 41.4900 146.3160 224° Southwest 490 564 40,000  Level FlightAware ADS-B
Thu 12:16:43 AM 41.4410 146.2550 223° Southwest 489 563 40,000  Level FlightAware ADS-B
Thu 12:17:18 AM 41.3840 146.1820 224° Southwest 488 562 40,000  Level FlightAware ADS-B
Thu 12:17:58 AM 41.3180 146.1000 223° Southwest 490 564 40,000  Level FlightAware ADS-B
Thu 12:18:28 AM 41.2680 146.0380 223° Southwest 489 563 40,000  Level FlightAware ADS-B
Thu 12:19:03 AM 41.2100 145.9650 223° Southwest 489 563 40,000  Level FlightAware ADS-B
Thu 12:19:43 AM 41.1460 145.8860 223° Southwest 488 562 40,000  Level FlightAware ADS-B
Thu 12:20:13 AM 41.0950 145.8220 223° Southwest 488 562 40,000  Level FlightAware ADS-B
Thu 12:20:48 AM 41.0390 145.7520 223° Southwest 488 562 40,000  Level FlightAware ADS-B
Thu 12:21:23 AM 40.9810 145.6800 223° Southwest 487 560 40,000  Level FlightAware ADS-B
Thu 12:21:58 AM 40.9270 145.6140 223° Southwest 488 562 40,000  Level FlightAware ADS-B
Thu 12:22:33 AM 40.8640 145.5370 223° Southwest 489 563 40,000  Level FlightAware ADS-B
Thu 12:23:08 AM 40.8060 145.4650 223° Southwest 484 557 40,000  Level FlightAware ADS-B
Thu 12:23:43 AM 40.7480 145.3940 223° Southwest 484 557 40,000  Level FlightAware ADS-B
Thu 12:24:18 AM 40.6900 145.3230 223° Southwest 488 562 40,000  Level FlightAware ADS-B
Thu 12:24:53 AM 40.6350 145.2570 222° Southwest 483 556 40,000  Level FlightAware ADS-B
Thu 12:25:38 AM 40.5620 145.1690 222° Southwest 486 559 40,000  Level FlightAware ADS-B
Thu 12:26:10 AM 40.5160 145.1130 223° Southwest 486 559 40,000  Level FlightAware ADS-B
Thu 12:26:47 AM 40.4630 145.0510 222° Southwest 486 559 40,000  Level FlightAware ADS-B
Thu 12:27:23 AM 40.4120 144.9900 222° Southwest 486 559 40,000  Level FlightAware ADS-B
Thu 12:27:56 AM 40.3360 144.8960 223° Southwest 483 556 40,000  Level FlightAware ADS-B
Thu 12:28:37 AM 40.2740 144.8200 223° Southwest 482 555 40,000  Level FlightAware ADS-B
Thu 12:29:14 AM 40.2230 144.7580 223° Southwest 482 555 40,000  Level FlightAware ADS-B
Thu 12:29:50 AM 40.1730 144.6970 223° Southwest 482 555 40,000  Level FlightAware ADS-B
Thu 12:32:00 AM 39.9632 144.4463 223° Southwest  Level FlightAware Approximate
Thu 12:33:00 AM 39.8662 144.3312 222° Southwest  Level FlightAware Approximate
Thu 12:33:42 AM 39.7530 144.2040 222° Southwest 482 555 40,000  Level FlightAware ADS-B
Thu 12:34:16 AM 39.6960 144.1370 222° Southwest 481 554 40,000  Level FlightAware ADS-B
Thu 12:34:56 AM 39.6210 144.0680 215° Southwest 481 554 40,000  Level FlightAware ADS-B
Thu 12:35:31 AM 39.5500 144.0250 205° Southwest 480 552 40,000  Level FlightAware ADS-B
Thu 12:36:06 AM 39.4810 143.9830 205° Southwest 481 554 40,000  Level FlightAware ADS-B
Thu 12:36:41 AM 39.4080 143.9400 204° Southwest 481 554 40,000  Level FlightAware ADS-B
Thu 12:37:13 AM 39.3450 143.9020 205° Southwest 480 552 40,000  Level FlightAware ADS-B
Thu 12:37:51 AM 39.2640 143.8530 205° Southwest 479 551 40,000  Level FlightAware ADS-B
Thu 12:38:26 AM 39.1920 143.8100 205° Southwest 478 550 40,000  Level FlightAware ADS-B
Thu 12:39:01 AM 39.1210 143.7680 205° Southwest 476 548 40,000  Level FlightAware ADS-B
Thu 12:39:36 AM 39.0490 143.7250 205° Southwest 481 554 40,000  Level FlightAware ADS-B
Thu 12:40:11 AM 38.9790 143.6840 204° Southwest 481 554 40,000  Level FlightAware ADS-B
Thu 12:40:46 AM 38.9070 143.6420 204° Southwest 476 548 40,000  Level FlightAware ADS-B
Thu 12:41:21 AM 38.8370 143.6000 205° Southwest 476 548 40,000  Level FlightAware ADS-B
Thu 12:41:56 AM 38.7670 143.5590 205° Southwest 476 548 40,000  Level FlightAware ADS-B
Thu 12:42:36 AM 38.6840 143.5100 205° Southwest 476 548 40,000  Level FlightAware ADS-B
Thu 12:43:11 AM 38.6130 143.4680 205° Southwest 477 549 40,000  Level FlightAware ADS-B
Thu 12:43:51 AM 38.5310 143.4210 204° Southwest 477 549 40,000  Level FlightAware ADS-B
Thu 12:44:21 AM 38.4690 143.3850 204° Southwest 477 549 40,000  Level FlightAware ADS-B
Thu 12:44:56 AM 38.3990 143.3440 205° Southwest 476 548 40,000  Level FlightAware ADS-B
Thu 12:45:36 AM 38.3170 143.2960 205° Southwest 477 549 40,000  Level FlightAware ADS-B
Thu 12:46:11 AM 38.2460 143.2550 204° Southwest 477 549 40,000  Level FlightAware ADS-B
Thu 12:46:41 AM 38.1850 143.2200 204° Southwest 479 551 40,000  Level FlightAware ADS-B
Thu 12:47:16 AM 38.1130 143.1780 205° Southwest 477 549 40,000  Level FlightAware ADS-B
Thu 12:47:56 AM 38.0310 143.1310 204° Southwest 477 549 40,000  Level FlightAware ADS-B
Thu 12:48:31 AM 37.9600 143.0910 204° Southwest 476 548 40,000  Level FlightAware ADS-B
Thu 12:49:01 AM 37.8990 143.0560 204° Southwest 477 549 40,000  Level FlightAware ADS-B
Thu 12:49:41 AM 37.8170 143.0090 204° Southwest 477 549 40,000  Level FlightAware ADS-B
Thu 12:50:16 AM 37.7450 142.9680 204° Southwest 477 549 40,000  Level FlightAware ADS-B
Thu 12:50:46 AM 37.6840 142.9330 204° Southwest 478 550 40,000  Level FlightAware ADS-B
Thu 12:51:21 AM 37.6130 142.8930 204° Southwest 478 550 40,000  Level FlightAware ADS-B
Thu 12:52:01 AM 37.5310 142.8460 204° Southwest 478 550 40,000  Level FlightAware ADS-B
Thu 12:52:36 AM 37.4590 142.8050 204° Southwest 479 551 40,000  Level FlightAware ADS-B
Thu 12:53:06 AM 37.3970 142.7710 204° Southwest 479 551 40,000  Level FlightAware ADS-B
Thu 12:53:41 AM 37.3250 142.7300 204° Southwest 479 551 40,000  Level FlightAware ADS-B
Thu 12:54:21 AM 37.2420 142.6840 204° Southwest 478 550 40,000  Level FlightAware ADS-B
Thu 12:54:56 AM 37.1720 142.6440 204° Southwest 477 549 40,000  Level FlightAware ADS-B
Thu 12:55:26 AM 37.1100 142.6090 204° Southwest 478 550 40,000  Level FlightAware ADS-B
Thu 12:56:06 AM 37.0280 142.5630 204° Southwest 477 549 40,000  Level FlightAware ADS-B
Thu 12:56:36 AM 36.9680 142.5300 204° Southwest 478 550 40,000  Level FlightAware ADS-B
Thu 12:57:11 AM 36.8950 142.4890 204° Southwest 480 552 40,000  Level FlightAware ADS-B
Thu 12:57:46 AM 36.8220 142.4490 204° Southwest 480 552 40,000 -80 Level FlightAware ADS-B
Thu 12:58:26 AM 36.7400 142.4040 204° Southwest 478 550 39,900 -975 Descending FlightAware ADS-B
Thu 12:59:06 AM 36.6590 142.3590 204° Southwest 473 544 38,700 -2,000 Descending FlightAware ADS-B
Thu 12:59:41 AM 36.5880 142.3160 206° Southwest 482 555 37,400 -2,000 Descending FlightAware ADS-B
Thu 01:00:15 AM 36.5220 142.2640 212° Southwest 483 556 36,400 -1,286 Descending FlightAware ADS-B
Thu 01:00:51 AM 36.4570 142.2110 213° Southwest 482 555 35,900 -1,286 Descending FlightAware ADS-B
Thu 01:01:25 AM 36.3920 142.1580 213° Southwest 483 556 34,900 -2,229 Descending FlightAware ADS-B
Thu 01:02:01 AM 36.3260 142.1040 213° Southwest 485 558 33,300 -2,958 Descending FlightAware ADS-B
Thu 01:02:36 AM 36.2600 142.0500 213° Southwest 483 556 31,400 -3,171 Descending FlightAware ADS-B
Thu 01:03:11 AM 36.1930 141.9960 213° Southwest 489 563 29,600 -2,743 Descending FlightAware ADS-B
Thu 01:03:46 AM 36.1260 141.9410 214° Southwest 487 560 28,200 -2,400 Descending FlightAware ADS-B
Thu 01:04:21 AM 36.0600 141.8880 213° Southwest 484 557 26,800 -2,486 Descending FlightAware ADS-B
Thu 01:04:56 AM 35.9950 141.8350 213° Southwest 468 539 25,300 -2,486 Descending FlightAware ADS-B
Thu 01:05:31 AM 35.9310 141.7830 213° Southwest 460 529 23,900 -2,486 Descending FlightAware ADS-B
Thu 01:06:06 AM 35.8680 141.7330 213° Southwest 460 529 22,400 -2,400 Descending FlightAware ADS-B
Thu 01:06:41 AM 35.8120 141.6880 213° Southwest 447 514 21,100 -2,308 Descending FlightAware ADS-B
Thu 01:07:11 AM 35.7590 141.6450 213° Southwest 447 514 19,900 -2,385 Descending FlightAware ADS-B
Thu 01:07:59 AM 35.6770 141.5790 213° Southwest 298 343 18,000 -2,294 Descending FlightAware ADS-B
Thu 01:08:19 AM 35.6470 141.5460 222° Southwest 427 491 17,300 -1,886 Descending FlightAware ADS-B
Thu 01:08:34 AM 35.6300 141.5160 235° Southwest 420 483 16,900 -1,784 Descending FlightAware ADS-B
Thu 01:08:56 AM 35.6200 141.4690 255° West 411 473 16,200 -2,040 Descending FlightAware ADS-B
Thu 01:09:24 AM 35.6300 141.4060 281° West 419 482 15,200 -2,082 Descending FlightAware ADS-B
Thu 01:09:45 AM 35.6460 141.3660 296° West 396 456 14,500 -2,032 Descending FlightAware ADS-B
Thu 01:10:26 AM 35.6810 141.2800 297° West 384 442 13,100 -2,074 Descending FlightAware ADS-B
Thu 01:11:06 AM 35.7110 141.2070 297° West 381 438 11,700 -1,481 Descending FlightAware ADS-B
Thu 01:11:47 AM 35.7390 141.1380 297° West 357 411 11,100 -741 Descending FlightAware ADS-B
Thu 01:12:27 AM 35.7710 141.0580 296° West 316 364 10,700 -532 Descending FlightAware ADS-B
Thu 01:13:06 AM 35.7940 141.0000 296° West 293 337 10,400 -486 Descending FlightAware ADS-B
Thu 01:13:41 AM 35.8150 140.9460 296° West 279 321 10,100 -692 Descending FlightAware ADS-B
Thu 01:13:58 AM 35.8250 140.9210 296° West 277 319 9,800 -900 Descending FlightAware ADS-B
Thu 01:14:21 AM 35.8360 140.8930 296° West 274 315 9,500 -1,029 Descending FlightAware ADS-B
Thu 01:14:33 AM 35.8440 140.8720 295° West 273 314 9,200 -649 Descending FlightAware ADS-B
Thu 01:14:58 AM 35.8600 140.8290 295° West 267 307 9,100 -128 Descending FlightAware ADS-B
Thu 01:15:20 AM 35.8720 140.7990 296° West 267 307 9,100  Level FlightAware ADS-B
Thu 01:15:36 AM 35.8800 140.7780 295° West 268 308 9,100  Level FlightAware ADS-B
Thu 01:15:56 AM 35.8920 140.7490 297° West 268 308 9,100  Level FlightAware ADS-B
Thu 01:16:16 AM 35.9020 140.7220 295° West 269 310 9,100 -450 Level FlightAware ADS-B
Thu 01:16:36 AM 35.9130 140.6930 295° West 268 308 8,800 -667 Descending FlightAware ADS-B
Thu 01:16:52 AM 35.9220 140.6710 297° West 263 303 8,700 -500 Descending FlightAware ADS-B
Thu 01:17:12 AM 35.9320 140.6460 296° West 253 291 8,500 -600 Descending FlightAware ADS-B
Thu 01:17:32 AM 35.9390 140.6190 288° West 247 284 8,300 -480 Descending FlightAware ADS-B
Thu 01:18:02 AM 35.9360 140.5770 265° West 245 282 8,100 -240 Descending FlightAware ADS-B
Thu 01:18:22 AM 35.9320 140.5500 260° West 245 282 8,100  Level FlightAware ADS-B
Thu 01:18:38 AM 35.9300 140.5260 264° West 246 283 8,100  Level FlightAware ADS-B
Thu 01:18:50 AM 35.9290 140.5100 266° West 245 282 8,100 -500 Level FlightAware ADS-B
Thu 01:19:02 AM 35.9300 140.4930 274° West 243 280 7,900 -973 Descending FlightAware ADS-B
Thu 01:19:27 AM 35.9350 140.4600 281° West 239 275 7,500 -1,227 Descending FlightAware ADS-B
Thu 01:19:46 AM 35.9410 140.4350 287° West 237 273 7,000 -1,538 Descending FlightAware ADS-B
Thu 01:20:06 AM 35.9490 140.4100 292° West 234 269 6,500 -1,412 Descending FlightAware ADS-B
Thu 01:20:20 AM 35.9540 140.3940 291° West 227 261 6,200 -882 Descending FlightAware ADS-B
Thu 01:20:40 AM 35.9630 140.3700 295° West 216 249 6,000 -545 Descending FlightAware ADS-B
Thu 01:21:04 AM 35.9700 140.3430 288° West 211 243 5,800 -649 Descending FlightAware ADS-B
Thu 01:21:17 AM 35.9730 140.3280 284° West 209 241 5,600 -938 Descending FlightAware ADS-B
Thu 01:21:36 AM 35.9770 140.3040 282° West 207 238 5,300 -1,067 Descending FlightAware ADS-B
Thu 01:22:02 AM 35.9760 140.2760 267° West 205 236 4,800 -1,200 Descending FlightAware ADS-B
Thu 01:22:11 AM 35.9710 140.2660 238° Southwest 206 237 4,600 -1,125 Descending FlightAware ADS-B
Thu 01:22:18 AM 35.9680 140.2610 233° Southwest 205 236 4,500 -750 Descending FlightAware ADS-B
Thu 01:22:27 AM 35.9620 140.2540 223° Southwest 198 228 4,400 -857 Descending FlightAware ADS-B
Thu 01:22:32 AM 35.9570 140.2510 206° Southwest 195 224 4,300 -1,200 Descending FlightAware ADS-B
Thu 01:22:37 AM 35.9530 140.2490 202° Southwest 199 229 4,200 -1,200 Descending FlightAware ADS-B
Thu 01:22:47 AM 35.9450 140.2480 186° South 196 226 4,000 -1,200 Descending FlightAware ADS-B
Thu 01:23:07 AM 35.9300 140.2550 159° South 189 217 3,600 -1,317 Descending FlightAware ADS-B
Thu 01:23:28 AM 35.9110 140.2690 149° Southeast 186 214 3,100 -1,116 Descending FlightAware ADS-B
Thu 01:23:50 AM 35.8950 140.2810 149° Southeast 186 214 2,800 -913 Descending FlightAware ADS-B
Thu 01:24:14 AM 35.8770 140.2940 150° Southeast 184 212 2,400 -1,000 Descending FlightAware ADS-B
Thu 01:24:26 AM 35.8680 140.3000 152° Southeast 178 205 2,200 -938 Descending FlightAware ADS-B
Thu 01:24:46 AM 35.8550 140.3100 148° Southeast 163 188 1,900 -732 Descending FlightAware ADS-B
Thu 01:25:07 AM 35.8420 140.3190 151° Southeast 151 174 1,700 -667 Descending FlightAware ADS-B
Thu 01:25:22 AM 35.8330 140.3260 148° Southeast 139 160 1,500 -686 Descending FlightAware ADS-B
Thu 01:25:42 AM 35.8220 140.3340 149° Southeast 132 152 1,300 -750 Descending FlightAware ADS-B
Thu 01:26:02 AM 35.8110 140.3410 153° Southeast 133 153 1,000 -750 Descending FlightAware ADS-B
Thu 01:26:14 AM 35.8050 140.3460 146° Southeast 132 152 900 -632 Descending FlightAware ADS-B
Thu 01:26:40 AM 35.7910 140.3560 150° Southeast 131 151 600 -652 Descending FlightAware ADS-B
Thu 01:27:00 AM 35.7810 140.3630 150° Southeast 131 151 400 -245 Descending FlightAware ADS-B
Thu 01:27:29 AM 35.7680 140.3730 148° Southeast 131 151 400  Level FlightAware ADS-B

Login

Don't have an account? Register now (free) for customized features, flight alerts, and more!